sensor_id;sensor_type;location;lat;lon;timestamp;P1;durP1;ratioP1;P2;durP2;ratioP2
51566;SDS011;37657;53.182;5.638;2024-01-07T00:01:56;9.88;;;9.00;;
51566;SDS011;37657;53.182;5.638;2024-01-07T00:04:22;10.70;;;8.13;;
51566;SDS011;37657;53.182;5.638;2024-01-07T00:06:48;11.13;;;7.07;;
51566;SDS011;37657;53.182;5.638;2024-01-07T00:09:13;10.18;;;7.97;;
51566;SDS011;37657;53.182;5.638;2024-01-07T00:11:40;9.45;;;7.70;;
51566;SDS011;37657;53.182;5.638;2024-01-07T00:14:05;9.23;;;7.28;;
51566;SDS011;37657;53.182;5.638;2024-01-07T00:16:31;9.52;;;8.57;;
51566;SDS011;37657;53.182;5.638;2024-01-07T00:18:57;7.97;;;7.18;;
51566;SDS011;37657;53.182;5.638;2024-01-07T00:21:23;13.50;;;8.77;;
51566;SDS011;37657;53.182;5.638;2024-01-07T00:23:49;10.90;;;9.80;;
51566;SDS011;37657;53.182;5.638;2024-01-07T00:26:14;12.18;;;8.38;;
51566;SDS011;37657;53.182;5.638;2024-01-07T00:28:40;8.93;;;8.05;;
51566;SDS011;37657;53.182;5.638;2024-01-07T00:31:06;9.77;;;8.60;;
51566;SDS011;37657;53.182;5.638;2024-01-07T00:33:34;7.53;;;6.40;;
51566;SDS011;37657;53.182;5.638;2024-01-07T00:36:02;10.95;;;7.75;;
51566;SDS011;37657;53.182;5.638;2024-01-07T00:38:28;10.32;;;7.63;;
51566;SDS011;37657;53.182;5.638;2024-01-07T00:40:54;10.85;;;6.65;;
51566;SDS011;37657;53.182;5.638;2024-01-07T00:43:19;8.20;;;7.45;;
51566;SDS011;37657;53.182;5.638;2024-01-07T00:45:45;7.72;;;6.93;;
51566;SDS011;37657;53.182;5.638;2024-01-07T00:48:10;10.60;;;7.35;;
51566;SDS011;37657;53.182;5.638;2024-01-07T00:50:36;8.50;;;6.15;;
51566;SDS011;37657;53.182;5.638;2024-01-07T00:53:01;6.93;;;5.90;;
51566;SDS011;37657;53.182;5.638;2024-01-07T00:55:27;8.98;;;7.28;;
51566;SDS011;37657;53.182;5.638;2024-01-07T00:57:53;9.40;;;8.23;;
51566;SDS011;37657;53.182;5.638;2024-01-07T01:00:18;7.78;;;7.00;;
51566;SDS011;37657;53.182;5.638;2024-01-07T01:02:45;7.60;;;6.80;;
51566;SDS011;37657;53.182;5.638;2024-01-07T01:05:10;9.55;;;6.90;;
51566;SDS011;37657;53.182;5.638;2024-01-07T01:07:36;8.82;;;7.57;;
51566;SDS011;37657;53.182;5.638;2024-01-07T01:10:02;8.95;;;8.00;;
51566;SDS011;37657;53.182;5.638;2024-01-07T01:12:28;10.95;;;6.93;;
51566;SDS011;37657;53.182;5.638;2024-01-07T01:14:53;9.38;;;7.57;;
51566;SDS011;37657;53.182;5.638;2024-01-07T01:17:19;8.80;;;6.22;;
51566;SDS011;37657;53.182;5.638;2024-01-07T01:19:45;11.25;;;8.60;;
51566;SDS011;37657;53.182;5.638;2024-01-07T01:22:10;13.35;;;7.20;;
51566;SDS011;37657;53.182;5.638;2024-01-07T01:24:36;10.30;;;9.25;;
51566;SDS011;37657;53.182;5.638;2024-01-07T01:27:02;14.50;;;8.20;;
51566;SDS011;37657;53.182;5.638;2024-01-07T01:29:27;7.88;;;5.88;;
51566;SDS011;37657;53.182;5.638;2024-01-07T01:31:53;11.48;;;6.60;;
51566;SDS011;37657;53.182;5.638;2024-01-07T01:34:19;9.57;;;6.95;;
51566;SDS011;37657;53.182;5.638;2024-01-07T01:36:44;9.90;;;7.30;;
51566;SDS011;37657;53.182;5.638;2024-01-07T01:39:10;9.00;;;6.15;;
51566;SDS011;37657;53.182;5.638;2024-01-07T01:41:35;8.40;;;6.72;;
51566;SDS011;37657;53.182;5.638;2024-01-07T01:44:01;8.20;;;6.28;;
51566;SDS011;37657;53.182;5.638;2024-01-07T01:46:27;10.25;;;7.07;;
51566;SDS011;37657;53.182;5.638;2024-01-07T01:48:55;7.18;;;5.97;;
51566;SDS011;37657;53.182;5.638;2024-01-07T01:51:21;11.63;;;9.38;;
51566;SDS011;37657;53.182;5.638;2024-01-07T01:53:47;10.75;;;7.07;;
51566;SDS011;37657;53.182;5.638;2024-01-07T01:56:15;7.80;;;7.03;;
51566;SDS011;37657;53.182;5.638;2024-01-07T01:58:43;11.88;;;9.38;;
51566;SDS011;37657;53.182;5.638;2024-01-07T02:01:09;15.70;;;8.25;;
51566;SDS011;37657;53.182;5.638;2024-01-07T02:03:35;15.52;;;9.05;;
51566;SDS011;37657;53.182;5.638;2024-01-07T02:06:01;13.07;;;7.72;;
51566;SDS011;37657;53.182;5.638;2024-01-07T02:08:27;9.60;;;7.07;;
51566;SDS011;37657;53.182;5.638;2024-01-07T02:10:53;14.45;;;8.32;;
51566;SDS011;37657;53.182;5.638;2024-01-07T02:13:19;9.73;;;6.18;;
51566;SDS011;37657;53.182;5.638;2024-01-07T02:15:44;8.23;;;6.57;;
51566;SDS011;37657;53.182;5.638;2024-01-07T02:18:10;8.15;;;6.43;;
51566;SDS011;37657;53.182;5.638;2024-01-07T02:20:36;8.13;;;6.63;;
51566;SDS011;37657;53.182;5.638;2024-01-07T02:23:02;12.98;;;8.35;;
51566;SDS011;37657;53.182;5.638;2024-01-07T02:25:28;10.10;;;8.07;;
51566;SDS011;37657;53.182;5.638;2024-01-07T02:27:54;9.93;;;6.53;;
51566;SDS011;37657;53.182;5.638;2024-01-07T02:30:19;8.35;;;5.88;;
51566;SDS011;37657;53.182;5.638;2024-01-07T02:32:45;11.43;;;7.57;;
51566;SDS011;37657;53.182;5.638;2024-01-07T02:35:11;7.57;;;6.15;;
51566;SDS011;37657;53.182;5.638;2024-01-07T02:37:36;9.15;;;6.63;;
51566;SDS011;37657;53.182;5.638;2024-01-07T02:40:02;11.98;;;7.63;;
51566;SDS011;37657;53.182;5.638;2024-01-07T02:42:28;7.57;;;6.32;;
51566;SDS011;37657;53.182;5.638;2024-01-07T02:44:54;9.13;;;6.95;;
51566;SDS011;37657;53.182;5.638;2024-01-07T02:47:19;11.70;;;6.32;;
51566;SDS011;37657;53.182;5.638;2024-01-07T02:49:45;6.63;;;4.85;;
51566;SDS011;37657;53.182;5.638;2024-01-07T02:52:10;8.45;;;6.15;;
51566;SDS011;37657;53.182;5.638;2024-01-07T02:54:36;8.70;;;6.85;;
51566;SDS011;37657;53.182;5.638;2024-01-07T02:57:02;7.18;;;4.95;;
51566;SDS011;37657;53.182;5.638;2024-01-07T02:59:27;9.40;;;5.65;;
51566;SDS011;37657;53.182;5.638;2024-01-07T03:01:53;9.05;;;5.97;;
51566;SDS011;37657;53.182;5.638;2024-01-07T03:04:19;7.78;;;6.97;;
51566;SDS011;37657;53.182;5.638;2024-01-07T03:06:44;8.10;;;5.80;;
51566;SDS011;37657;53.182;5.638;2024-01-07T03:09:10;6.95;;;5.35;;
51566;SDS011;37657;53.182;5.638;2024-01-07T03:11:40;10.48;;;6.10;;
51566;SDS011;37657;53.182;5.638;2024-01-07T03:14:09;10.63;;;6.70;;
51566;SDS011;37657;53.182;5.638;2024-01-07T03:16:35;11.02;;;6.68;;
51566;SDS011;37657;53.182;5.638;2024-01-07T03:19:01;9.27;;;4.63;;
51566;SDS011;37657;53.182;5.638;2024-01-07T03:21:27;9.38;;;7.30;;
51566;SDS011;37657;53.182;5.638;2024-01-07T03:23:53;8.32;;;6.90;;
51566;SDS011;37657;53.182;5.638;2024-01-07T03:26:19;8.52;;;5.97;;
51566;SDS011;37657;53.182;5.638;2024-01-07T03:28:45;11.52;;;7.03;;
51566;SDS011;37657;53.182;5.638;2024-01-07T03:31:12;6.20;;;4.95;;
51566;SDS011;37657;53.182;5.638;2024-01-07T03:33:40;7.53;;;5.32;;
51566;SDS011;37657;53.182;5.638;2024-01-07T03:36:09;5.22;;;4.47;;
51566;SDS011;37657;53.182;5.638;2024-01-07T03:38:36;7.72;;;5.85;;
51566;SDS011;37657;53.182;5.638;2024-01-07T03:41:02;8.45;;;6.50;;
51566;SDS011;37657;53.182;5.638;2024-01-07T03:43:28;6.68;;;5.63;;
51566;SDS011;37657;53.182;5.638;2024-01-07T03:45:54;6.30;;;4.93;;
51566;SDS011;37657;53.182;5.638;2024-01-07T03:48:20;7.43;;;4.90;;
51566;SDS011;37657;53.182;5.638;2024-01-07T03:50:46;8.23;;;4.65;;
51566;SDS011;37657;53.182;5.638;2024-01-07T03:53:12;11.32;;;6.07;;
51566;SDS011;37657;53.182;5.638;2024-01-07T03:55:38;6.75;;;4.28;;
51566;SDS011;37657;53.182;5.638;2024-01-07T03:58:04;6.82;;;4.53;;
51566;SDS011;37657;53.182;5.638;2024-01-07T04:00:30;6.80;;;4.03;;
51566;SDS011;37657;53.182;5.638;2024-01-07T04:02:56;5.68;;;3.80;;
51566;SDS011;37657;53.182;5.638;2024-01-07T04:05:22;7.88;;;5.03;;
51566;SDS011;37657;53.182;5.638;2024-01-07T04:07:48;6.38;;;4.53;;
51566;SDS011;37657;53.182;5.638;2024-01-07T04:10:15;7.00;;;3.97;;
51566;SDS011;37657;53.182;5.638;2024-01-07T04:12:41;3.85;;;3.33;;
51566;SDS011;37657;53.182;5.638;2024-01-07T04:15:07;6.18;;;4.18;;
51566;SDS011;37657;53.182;5.638;2024-01-07T04:17:33;4.38;;;3.92;;
51566;SDS011;37657;53.182;5.638;2024-01-07T04:19:59;4.93;;;4.20;;
51566;SDS011;37657;53.182;5.638;2024-01-07T04:22:24;7.15;;;3.40;;
51566;SDS011;37657;53.182;5.638;2024-01-07T04:24:50;4.63;;;3.15;;
51566;SDS011;37657;53.182;5.638;2024-01-07T04:27:16;6.00;;;4.57;;
51566;SDS011;37657;53.182;5.638;2024-01-07T04:29:41;9.00;;;4.68;;
51566;SDS011;37657;53.182;5.638;2024-01-07T04:32:07;5.15;;;4.63;;
51566;SDS011;37657;53.182;5.638;2024-01-07T04:34:32;3.70;;;3.13;;
51566;SDS011;37657;53.182;5.638;2024-01-07T04:36:58;7.03;;;3.78;;
51566;SDS011;37657;53.182;5.638;2024-01-07T04:39:24;5.63;;;3.67;;
51566;SDS011;37657;53.182;5.638;2024-01-07T04:41:49;4.55;;;3.45;;
51566;SDS011;37657;53.182;5.638;2024-01-07T04:44:15;11.02;;;4.10;;
51566;SDS011;37657;53.182;5.638;2024-01-07T04:46:40;4.78;;;3.97;;
51566;SDS011;37657;53.182;5.638;2024-01-07T04:49:06;4.20;;;3.42;;
51566;SDS011;37657;53.182;5.638;2024-01-07T04:51:32;7.65;;;4.35;;
51566;SDS011;37657;53.182;5.638;2024-01-07T04:53:58;6.93;;;3.47;;
51566;SDS011;37657;53.182;5.638;2024-01-07T04:56:24;6.43;;;5.85;;
51566;SDS011;37657;53.182;5.638;2024-01-07T04:58:50;5.70;;;3.65;;
51566;SDS011;37657;53.182;5.638;2024-01-07T05:01:15;5.25;;;3.92;;
51566;SDS011;37657;53.182;5.638;2024-01-07T05:03:41;8.07;;;4.03;;
51566;SDS011;37657;53.182;5.638;2024-01-07T05:06:09;6.35;;;3.58;;
51566;SDS011;37657;53.182;5.638;2024-01-07T05:08:36;9.00;;;3.47;;
51566;SDS011;37657;53.182;5.638;2024-01-07T05:11:02;4.95;;;3.15;;
51566;SDS011;37657;53.182;5.638;2024-01-07T05:13:29;2.60;;;2.10;;
51566;SDS011;37657;53.182;5.638;2024-01-07T05:15:55;5.05;;;3.40;;
51566;SDS011;37657;53.182;5.638;2024-01-07T05:18:24;5.60;;;3.35;;
51566;SDS011;37657;53.182;5.638;2024-01-07T05:20:50;2.78;;;2.47;;
51566;SDS011;37657;53.182;5.638;2024-01-07T05:23:17;3.78;;;3.00;;
51566;SDS011;37657;53.182;5.638;2024-01-07T05:25:43;7.90;;;3.63;;
51566;SDS011;37657;53.182;5.638;2024-01-07T05:28:09;6.40;;;3.78;;
51566;SDS011;37657;53.182;5.638;2024-01-07T05:30:36;5.38;;;3.55;;
51566;SDS011;37657;53.182;5.638;2024-01-07T05:33:01;4.13;;;2.70;;
51566;SDS011;37657;53.182;5.638;2024-01-07T05:35:27;3.92;;;3.22;;
51566;SDS011;37657;53.182;5.638;2024-01-07T05:37:53;6.28;;;3.85;;
51566;SDS011;37657;53.182;5.638;2024-01-07T05:40:18;2.78;;;2.17;;
51566;SDS011;37657;53.182;5.638;2024-01-07T05:42:44;4.50;;;2.45;;
51566;SDS011;37657;53.182;5.638;2024-01-07T05:45:09;5.05;;;3.30;;
51566;SDS011;37657;53.182;5.638;2024-01-07T05:47:35;3.20;;;2.72;;
51566;SDS011;37657;53.182;5.638;2024-01-07T05:50:01;5.18;;;3.17;;
51566;SDS011;37657;53.182;5.638;2024-01-07T05:52:27;4.78;;;2.85;;
51566;SDS011;37657;53.182;5.638;2024-01-07T05:54:53;2.45;;;2.22;;
51566;SDS011;37657;53.182;5.638;2024-01-07T05:57:18;3.20;;;2.83;;
51566;SDS011;37657;53.182;5.638;2024-01-07T05:59:44;3.00;;;2.33;;
51566;SDS011;37657;53.182;5.638;2024-01-07T06:02:10;3.50;;;3.20;;
51566;SDS011;37657;53.182;5.638;2024-01-07T06:04:37;3.35;;;2.35;;
51566;SDS011;37657;53.182;5.638;2024-01-07T06:07:03;4.40;;;2.67;;
51566;SDS011;37657;53.182;5.638;2024-01-07T06:09:29;5.82;;;3.03;;
51566;SDS011;37657;53.182;5.638;2024-01-07T06:11:55;4.63;;;3.17;;
51566;SDS011;37657;53.182;5.638;2024-01-07T06:14:21;2.60;;;2.40;;
51566;SDS011;37657;53.182;5.638;2024-01-07T06:16:47;4.78;;;3.25;;
51566;SDS011;37657;53.182;5.638;2024-01-07T06:19:13;2.45;;;2.25;;
51566;SDS011;37657;53.182;5.638;2024-01-07T06:21:40;5.03;;;3.15;;
51566;SDS011;37657;53.182;5.638;2024-01-07T06:24:07;4.55;;;2.63;;
51566;SDS011;37657;53.182;5.638;2024-01-07T06:26:33;4.90;;;2.28;;
51566;SDS011;37657;53.182;5.638;2024-01-07T06:28:59;3.92;;;3.53;;
51566;SDS011;37657;53.182;5.638;2024-01-07T06:31:25;3.80;;;2.55;;
51566;SDS011;37657;53.182;5.638;2024-01-07T06:33:51;5.22;;;3.10;;
51566;SDS011;37657;53.182;5.638;2024-01-07T06:36:17;4.47;;;2.63;;
51566;SDS011;37657;53.182;5.638;2024-01-07T06:38:42;5.38;;;2.83;;
51566;SDS011;37657;53.182;5.638;2024-01-07T06:41:11;4.53;;;3.10;;
51566;SDS011;37657;53.182;5.638;2024-01-07T06:43:38;3.90;;;2.20;;
51566;SDS011;37657;53.182;5.638;2024-01-07T06:46:04;3.00;;;2.30;;
51566;SDS011;37657;53.182;5.638;2024-01-07T06:48:29;5.97;;;3.22;;
51566;SDS011;37657;53.182;5.638;2024-01-07T06:50:55;4.55;;;2.67;;
51566;SDS011;37657;53.182;5.638;2024-01-07T06:53:21;5.75;;;2.67;;
51566;SDS011;37657;53.182;5.638;2024-01-07T06:55:46;4.63;;;2.90;;
51566;SDS011;37657;53.182;5.638;2024-01-07T06:58:12;3.25;;;2.95;;
51566;SDS011;37657;53.182;5.638;2024-01-07T07:00:38;2.63;;;2.10;;
51566;SDS011;37657;53.182;5.638;2024-01-07T07:03:04;3.63;;;2.58;;
51566;SDS011;37657;53.182;5.638;2024-01-07T07:05:30;3.28;;;2.58;;
51566;SDS011;37657;53.182;5.638;2024-01-07T07:07:56;3.13;;;2.42;;
51566;SDS011;37657;53.182;5.638;2024-01-07T07:10:22;3.38;;;2.95;;
51566;SDS011;37657;53.182;5.638;2024-01-07T07:12:48;2.25;;;1.90;;
51566;SDS011;37657;53.182;5.638;2024-01-07T07:15:15;3.05;;;2.15;;
51566;SDS011;37657;53.182;5.638;2024-01-07T07:17:41;4.78;;;2.47;;
51566;SDS011;37657;53.182;5.638;2024-01-07T07:20:07;2.72;;;2.20;;
51566;SDS011;37657;53.182;5.638;2024-01-07T07:22:33;2.88;;;2.47;;
51566;SDS011;37657;53.182;5.638;2024-01-07T07:24:59;2.90;;;2.33;;
51566;SDS011;37657;53.182;5.638;2024-01-07T07:27:25;2.70;;;2.47;;
51566;SDS011;37657;53.182;5.638;2024-01-07T07:29:50;4.82;;;2.97;;
51566;SDS011;37657;53.182;5.638;2024-01-07T07:32:16;2.95;;;2.63;;
51566;SDS011;37657;53.182;5.638;2024-01-07T07:34:41;4.68;;;2.50;;
51566;SDS011;37657;53.182;5.638;2024-01-07T07:37:07;3.05;;;2.38;;
51566;SDS011;37657;53.182;5.638;2024-01-07T07:39:32;3.15;;;2.20;;
51566;SDS011;37657;53.182;5.638;2024-01-07T07:41:59;5.50;;;3.08;;
51566;SDS011;37657;53.182;5.638;2024-01-07T07:44:25;4.10;;;2.97;;
51566;SDS011;37657;53.182;5.638;2024-01-07T07:46:50;4.53;;;2.63;;
51566;SDS011;37657;53.182;5.638;2024-01-07T07:49:16;28.77;;;4.90;;
51566;SDS011;37657;53.182;5.638;2024-01-07T07:51:43;2.97;;;2.65;;
51566;SDS011;37657;53.182;5.638;2024-01-07T07:54:08;4.85;;;3.22;;
51566;SDS011;37657;53.182;5.638;2024-01-07T07:56:34;4.15;;;3.78;;
51566;SDS011;37657;53.182;5.638;2024-01-07T07:59:01;6.60;;;4.75;;
51566;SDS011;37657;53.182;5.638;2024-01-07T08:01:27;4.28;;;3.53;;
51566;SDS011;37657;53.182;5.638;2024-01-07T08:03:53;3.65;;;2.92;;
51566;SDS011;37657;53.182;5.638;2024-01-07T08:06:19;3.53;;;3.22;;
51566;SDS011;37657;53.182;5.638;2024-01-07T08:08:44;3.38;;;2.50;;
51566;SDS011;37657;53.182;5.638;2024-01-07T08:11:10;3.63;;;2.53;;
51566;SDS011;37657;53.182;5.638;2024-01-07T08:13:36;3.63;;;2.53;;
51566;SDS011;37657;53.182;5.638;2024-01-07T08:16:03;7.05;;;2.35;;
51566;SDS011;37657;53.182;5.638;2024-01-07T08:18:29;6.70;;;2.72;;
51566;SDS011;37657;53.182;5.638;2024-01-07T08:20:55;4.93;;;3.85;;
51566;SDS011;37657;53.182;5.638;2024-01-07T08:23:20;5.95;;;2.90;;
51566;SDS011;37657;53.182;5.638;2024-01-07T08:25:46;4.70;;;2.83;;
51566;SDS011;37657;53.182;5.638;2024-01-07T08:28:12;3.10;;;2.33;;
51566;SDS011;37657;53.182;5.638;2024-01-07T08:30:37;2.80;;;2.38;;
51566;SDS011;37657;53.182;5.638;2024-01-07T08:33:03;3.80;;;2.97;;
51566;SDS011;37657;53.182;5.638;2024-01-07T08:35:29;5.05;;;2.42;;
51566;SDS011;37657;53.182;5.638;2024-01-07T08:37:54;5.75;;;3.53;;
51566;SDS011;37657;53.182;5.638;2024-01-07T08:40:20;3.50;;;3.08;;
51566;SDS011;37657;53.182;5.638;2024-01-07T08:42:45;6.78;;;3.38;;
51566;SDS011;37657;53.182;5.638;2024-01-07T08:45:12;4.45;;;3.67;;
51566;SDS011;37657;53.182;5.638;2024-01-07T08:47:38;4.25;;;2.90;;
51566;SDS011;37657;53.182;5.638;2024-01-07T08:50:05;6.35;;;3.35;;
51566;SDS011;37657;53.182;5.638;2024-01-07T08:52:31;3.50;;;2.75;;
51566;SDS011;37657;53.182;5.638;2024-01-07T08:54:56;4.70;;;3.63;;
51566;SDS011;37657;53.182;5.638;2024-01-07T08:57:22;8.70;;;3.15;;
51566;SDS011;37657;53.182;5.638;2024-01-07T08:59:48;5.32;;;3.38;;
51566;SDS011;37657;53.182;5.638;2024-01-07T09:02:14;8.48;;;5.15;;
51566;SDS011;37657;53.182;5.638;2024-01-07T09:04:40;3.53;;;3.05;;
51566;SDS011;37657;53.182;5.638;2024-01-07T09:07:05;4.60;;;3.00;;
51566;SDS011;37657;53.182;5.638;2024-01-07T09:09:31;4.15;;;3.20;;
51566;SDS011;37657;53.182;5.638;2024-01-07T09:11:56;7.03;;;3.85;;
51566;SDS011;37657;53.182;5.638;2024-01-07T09:14:24;5.40;;;3.33;;
51566;SDS011;37657;53.182;5.638;2024-01-07T09:16:50;4.25;;;3.05;;
51566;SDS011;37657;53.182;5.638;2024-01-07T09:19:16;3.70;;;3.20;;
51566;SDS011;37657;53.182;5.638;2024-01-07T09:21:42;6.05;;;4.50;;
51566;SDS011;37657;53.182;5.638;2024-01-07T09:24:09;4.95;;;3.08;;
51566;SDS011;37657;53.182;5.638;2024-01-07T09:26:35;3.92;;;2.95;;
51566;SDS011;37657;53.182;5.638;2024-01-07T09:29:01;8.32;;;3.20;;
51566;SDS011;37657;53.182;5.638;2024-01-07T09:31:27;4.05;;;3.17;;
51566;SDS011;37657;53.182;5.638;2024-01-07T09:33:53;7.07;;;3.40;;
51566;SDS011;37657;53.182;5.638;2024-01-07T09:36:18;4.38;;;3.55;;
51566;SDS011;37657;53.182;5.638;2024-01-07T09:38:44;4.47;;;3.15;;
51566;SDS011;37657;53.182;5.638;2024-01-07T09:41:10;3.65;;;2.97;;
51566;SDS011;37657;53.182;5.638;2024-01-07T09:43:35;5.10;;;3.75;;
51566;SDS011;37657;53.182;5.638;2024-01-07T09:46:01;5.20;;;4.03;;
51566;SDS011;37657;53.182;5.638;2024-01-07T09:48:27;3.50;;;3.20;;
51566;SDS011;37657;53.182;5.638;2024-01-07T09:50:53;4.57;;;3.53;;
51566;SDS011;37657;53.182;5.638;2024-01-07T09:53:20;5.63;;;3.90;;
51566;SDS011;37657;53.182;5.638;2024-01-07T09:58:37;4.38;;;3.55;;
51566;SDS011;37657;53.182;5.638;2024-01-07T10:01:02;3.55;;;3.03;;
51566;SDS011;37657;53.182;5.638;2024-01-07T10:03:30;4.35;;;3.13;;
51566;SDS011;37657;53.182;5.638;2024-01-07T10:05:56;3.65;;;3.33;;
51566;SDS011;37657;53.182;5.638;2024-01-07T10:08:21;3.35;;;2.80;;
51566;SDS011;37657;53.182;5.638;2024-01-07T10:10:48;4.20;;;2.70;;
51566;SDS011;37657;53.182;5.638;2024-01-07T10:13:14;8.00;;;3.63;;
51566;SDS011;37657;53.182;5.638;2024-01-07T10:15:39;3.35;;;2.80;;
51566;SDS011;37657;53.182;5.638;2024-01-07T10:18:06;4.22;;;3.33;;
51566;SDS011;37657;53.182;5.638;2024-01-07T10:20:33;5.07;;;3.92;;
51566;SDS011;37657;53.182;5.638;2024-01-07T10:22:59;7.85;;;2.97;;
51566;SDS011;37657;53.182;5.638;2024-01-07T10:25:26;7.88;;;3.42;;
51566;SDS011;37657;53.182;5.638;2024-01-07T10:27:51;3.95;;;2.88;;
51566;SDS011;37657;53.182;5.638;2024-01-07T10:30:17;5.50;;;3.15;;
51566;SDS011;37657;53.182;5.638;2024-01-07T10:32:43;3.10;;;2.80;;
51566;SDS011;37657;53.182;5.638;2024-01-07T10:35:10;6.05;;;3.75;;
51566;SDS011;37657;53.182;5.638;2024-01-07T10:37:39;4.07;;;3.38;;
51566;SDS011;37657;53.182;5.638;2024-01-07T10:40:05;2.92;;;2.65;;
51566;SDS011;37657;53.182;5.638;2024-01-07T10:42:32;4.30;;;2.83;;
51566;SDS011;37657;53.182;5.638;2024-01-07T10:45:01;4.28;;;3.50;;
51566;SDS011;37657;53.182;5.638;2024-01-07T10:47:29;3.72;;;3.22;;
51566;SDS011;37657;53.182;5.638;2024-01-07T10:49:59;4.32;;;3.03;;
51566;SDS011;37657;53.182;5.638;2024-01-07T10:52:27;3.45;;;2.85;;
51566;SDS011;37657;53.182;5.638;2024-01-07T10:54:56;4.00;;;3.60;;
51566;SDS011;37657;53.182;5.638;2024-01-07T11:00:13;5.35;;;3.50;;
51566;SDS011;37657;53.182;5.638;2024-01-07T11:03:04;4.25;;;3.25;;
51566;SDS011;37657;53.182;5.638;2024-01-07T11:05:42;4.25;;;3.13;;
51566;SDS011;37657;53.182;5.638;2024-01-07T11:08:20;3.17;;;2.67;;
51566;SDS011;37657;53.182;5.638;2024-01-07T11:11:07;5.22;;;3.05;;
51566;SDS011;37657;53.182;5.638;2024-01-07T11:13:38;6.40;;;3.00;;
51566;SDS011;37657;53.182;5.638;2024-01-07T11:16:05;4.75;;;2.83;;
51566;SDS011;37657;53.182;5.638;2024-01-07T11:18:46;5.47;;;4.95;;
51566;SDS011;37657;53.182;5.638;2024-01-07T11:21:22;4.78;;;2.95;;
51566;SDS011;37657;53.182;5.638;2024-01-07T11:23:49;4.00;;;2.88;;
51566;SDS011;37657;53.182;5.638;2024-01-07T11:26:17;4.20;;;3.30;;
51566;SDS011;37657;53.182;5.638;2024-01-07T11:31:16;3.35;;;2.53;;
51566;SDS011;37657;53.182;5.638;2024-01-07T11:33:44;5.07;;;3.10;;
51566;SDS011;37657;53.182;5.638;2024-01-07T11:36:17;3.38;;;2.72;;
51566;SDS011;37657;53.182;5.638;2024-01-07T11:38:44;4.55;;;3.63;;
51566;SDS011;37657;53.182;5.638;2024-01-07T11:41:12;3.33;;;3.03;;
51566;SDS011;37657;53.182;5.638;2024-01-07T11:43:49;3.05;;;2.67;;
51566;SDS011;37657;53.182;5.638;2024-01-07T11:46:18;4.38;;;3.13;;
51566;SDS011;37657;53.182;5.638;2024-01-07T11:48:45;5.05;;;3.00;;
51566;SDS011;37657;53.182;5.638;2024-01-07T11:51:11;6.45;;;3.50;;
51566;SDS011;37657;53.182;5.638;2024-01-07T11:53:37;4.13;;;3.28;;
51566;SDS011;37657;53.182;5.638;2024-01-07T11:56:03;7.40;;;3.33;;
51566;SDS011;37657;53.182;5.638;2024-01-07T11:58:30;4.80;;;4.40;;
51566;SDS011;37657;53.182;5.638;2024-01-07T12:00:55;6.90;;;3.28;;
51566;SDS011;37657;53.182;5.638;2024-01-07T12:03:23;6.90;;;4.25;;
51566;SDS011;37657;53.182;5.638;2024-01-07T12:05:49;5.35;;;3.33;;
51566;SDS011;37657;53.182;5.638;2024-01-07T12:08:14;5.43;;;3.67;;
51566;SDS011;37657;53.182;5.638;2024-01-07T12:10:41;7.25;;;3.63;;
51566;SDS011;37657;53.182;5.638;2024-01-07T12:13:07;4.53;;;3.25;;
51566;SDS011;37657;53.182;5.638;2024-01-07T12:15:34;5.43;;;3.17;;
51566;SDS011;37657;53.182;5.638;2024-01-07T12:18:00;5.03;;;3.95;;
51566;SDS011;37657;53.182;5.638;2024-01-07T12:20:26;3.40;;;2.70;;
51566;SDS011;37657;53.182;5.638;2024-01-07T12:22:55;6.03;;;3.95;;
51566;SDS011;37657;53.182;5.638;2024-01-07T12:25:22;7.90;;;4.00;;
51566;SDS011;37657;53.182;5.638;2024-01-07T12:27:49;7.70;;;3.38;;
51566;SDS011;37657;53.182;5.638;2024-01-07T12:30:18;5.80;;;3.42;;
51566;SDS011;37657;53.182;5.638;2024-01-07T12:32:44;8.93;;;4.55;;
51566;SDS011;37657;53.182;5.638;2024-01-07T12:35:10;7.55;;;4.30;;
51566;SDS011;37657;53.182;5.638;2024-01-07T12:37:37;6.18;;;4.22;;
51566;SDS011;37657;53.182;5.638;2024-01-07T12:40:03;6.32;;;3.40;;
51566;SDS011;37657;53.182;5.638;2024-01-07T12:42:29;4.78;;;3.85;;
51566;SDS011;37657;53.182;5.638;2024-01-07T12:44:55;6.53;;;4.63;;
51566;SDS011;37657;53.182;5.638;2024-01-07T12:47:21;2.88;;;2.58;;
51566;SDS011;37657;53.182;5.638;2024-01-07T12:49:46;4.07;;;3.25;;
51566;SDS011;37657;53.182;5.638;2024-01-07T12:52:12;3.20;;;2.90;;
51566;SDS011;37657;53.182;5.638;2024-01-07T12:54:38;3.78;;;3.15;;
51566;SDS011;37657;53.182;5.638;2024-01-07T12:57:04;3.60;;;3.22;;
51566;SDS011;37657;53.182;5.638;2024-01-07T12:59:29;6.57;;;4.38;;
51566;SDS011;37657;53.182;5.638;2024-01-07T13:01:56;4.30;;;2.90;;
51566;SDS011;37657;53.182;5.638;2024-01-07T13:04:22;3.80;;;3.35;;
51566;SDS011;37657;53.182;5.638;2024-01-07T13:06:47;5.82;;;3.47;;
51566;SDS011;37657;53.182;5.638;2024-01-07T13:09:13;5.78;;;3.90;;
51566;SDS011;37657;53.182;5.638;2024-01-07T13:11:39;5.22;;;3.33;;
51566;SDS011;37657;53.182;5.638;2024-01-07T13:14:04;5.75;;;3.50;;
51566;SDS011;37657;53.182;5.638;2024-01-07T13:16:30;5.15;;;3.78;;
51566;SDS011;37657;53.182;5.638;2024-01-07T13:18:56;4.28;;;3.10;;
51566;SDS011;37657;53.182;5.638;2024-01-07T13:21:22;8.45;;;4.18;;
51566;SDS011;37657;53.182;5.638;2024-01-07T13:23:48;3.42;;;2.95;;
51566;SDS011;37657;53.182;5.638;2024-01-07T13:26:13;4.30;;;3.42;;
51566;SDS011;37657;53.182;5.638;2024-01-07T13:28:41;5.57;;;4.13;;
51566;SDS011;37657;53.182;5.638;2024-01-07T13:31:07;5.03;;;3.53;;
51566;SDS011;37657;53.182;5.638;2024-01-07T13:33:33;7.32;;;3.78;;
51566;SDS011;37657;53.182;5.638;2024-01-07T13:35:59;4.53;;;2.50;;
51566;SDS011;37657;53.182;5.638;2024-01-07T13:38:25;8.10;;;3.03;;
51566;SDS011;37657;53.182;5.638;2024-01-07T13:40:50;2.92;;;2.58;;
51566;SDS011;37657;53.182;5.638;2024-01-07T13:43:16;9.50;;;3.17;;
51566;SDS011;37657;53.182;5.638;2024-01-07T13:45:42;5.75;;;4.32;;
51566;SDS011;37657;53.182;5.638;2024-01-07T13:48:08;6.78;;;3.10;;
51566;SDS011;37657;53.182;5.638;2024-01-07T13:50:34;5.18;;;3.15;;
51566;SDS011;37657;53.182;5.638;2024-01-07T13:53:00;5.55;;;2.80;;
51566;SDS011;37657;53.182;5.638;2024-01-07T13:55:27;6.13;;;3.38;;
51566;SDS011;37657;53.182;5.638;2024-01-07T13:57:52;5.78;;;3.28;;
51566;SDS011;37657;53.182;5.638;2024-01-07T14:00:18;4.63;;;3.90;;
51566;SDS011;37657;53.182;5.638;2024-01-07T14:02:44;4.68;;;4.15;;
51566;SDS011;37657;53.182;5.638;2024-01-07T14:05:14;2.88;;;2.50;;
51566;SDS011;37657;53.182;5.638;2024-01-07T14:07:40;5.50;;;3.70;;
51566;SDS011;37657;53.182;5.638;2024-01-07T14:10:06;4.88;;;3.65;;
51566;SDS011;37657;53.182;5.638;2024-01-07T14:12:33;7.05;;;4.45;;
51566;SDS011;37657;53.182;5.638;2024-01-07T14:14:59;9.55;;;4.00;;
51566;SDS011;37657;53.182;5.638;2024-01-07T14:17:25;2.88;;;2.67;;
51566;SDS011;37657;53.182;5.638;2024-01-07T14:19:51;5.82;;;3.40;;
51566;SDS011;37657;53.182;5.638;2024-01-07T14:22:19;7.13;;;3.72;;
51566;SDS011;37657;53.182;5.638;2024-01-07T14:24:45;5.15;;;3.78;;
51566;SDS011;37657;53.182;5.638;2024-01-07T14:27:11;5.88;;;3.35;;
51566;SDS011;37657;53.182;5.638;2024-01-07T14:29:37;8.60;;;3.38;;
51566;SDS011;37657;53.182;5.638;2024-01-07T14:32:04;5.38;;;3.63;;
51566;SDS011;37657;53.182;5.638;2024-01-07T14:34:31;7.15;;;4.30;;
51566;SDS011;37657;53.182;5.638;2024-01-07T14:36:57;7.30;;;4.20;;
51566;SDS011;37657;53.182;5.638;2024-01-07T14:39:23;4.57;;;3.85;;
51566;SDS011;37657;53.182;5.638;2024-01-07T14:41:48;8.25;;;3.80;;
51566;SDS011;37657;53.182;5.638;2024-01-07T14:44:14;4.03;;;3.63;;
51566;SDS011;37657;53.182;5.638;2024-01-07T14:46:40;5.70;;;3.78;;
51566;SDS011;37657;53.182;5.638;2024-01-07T14:49:06;6.93;;;4.30;;